Accueil
METAR-TAF:

METAR-TAF

Aéroports :

Albert, France

Aéroport Albert-Picardie

latitude: 49-58-21N, longitude: 002-41-29E, altitude: 111 m

METAR: absent

Heure: 20:06 (19:06 UTC)

Prévision

Le bulletin a été fait il y a 5 heures et 6 minutes, à 14:00 UTC
Prévision valable du 20 à 15 UTC au 20 à 24 UTC
Vent 3 kt de nord/nord-est
Visibilité 10 km ou plus
Nuages épars à une hauteur de 1300 ft
Nuages fragmentés à une hauteur de 3000 ft
Temporairement
du 20 à 15 UTC au 20 à 19 UTC
Visibilité: 3000 m
Nuages fragmentés à une hauteur de 1000 ft
pluie
Evoluant progressivement
du 20 à 20 UTC au 20 à 22 UTC
Vent 13 kt de nord/nord-est

TAF: LFAQ 201400Z 2015/2024 02003KT 9999 SCT013 BKN030 TEMPO 2015/2019 3000 RA BKN010 BECMG 2020/2022 02013KT

Observations et prévisions météorologiques de plus de 4000 aéroports (messages METAR et TAF).

Les stations disponibles sont représentées par des disques jaunes et rouges sur la carte.

Passer la souris dessus pour voir le nom de la station.

Cliquer dessus pour voir les observations et prévisions météorologiques.

Pour changer de carte: cliquez sur les boutons verts avec une croix noire pour zoomer, sur le bouton vert avec un tiret pour effectuer un zoom arrière, ou sur les flèches vertes pour les cartes adjacentes.


METAR-TAF: